Time;durP1;ratioP1;P1;durP2;ratioP2;P2;SDS_P1;SDS_P2;PMS_P1;PMS_P2;Temp;Humidity;BMP_temperature;BMP_pressure;BME280_temperature;BME280_humidity;BME280_pressure;Samples;Min_cycle;Max_cycle;Signal;HPM_P1;HPM_P2
2023/09/28 00:02:58;;;;;;;13.88;8.25;;;18.40;99.90;;;;;;5027824;28;20045;-71
2023/09/28 00:05:24;;;;;;;13.27;7.63;;;18.40;99.90;;;;;;5075597;28;20045;-71
2023/09/28 00:07:50;;;;;;;15.55;7.80;;;18.40;99.90;;;;;;5022113;28;20055;-71
2023/09/28 00:10:17;;;;;;;14.48;7.18;;;18.30;99.90;;;;;;5049200;28;20076;-71
2023/09/28 00:12:46;;;;;;;11.85;7.43;;;18.30;99.90;;;;;;5044955;28;20079;-70
2023/09/28 00:15:14;;;;;;;11.65;7.30;;;18.40;99.90;;;;;;5011198;28;20422;-72
2023/09/28 00:17:40;;;;;;;11.98;7.40;;;18.40;99.90;;;;;;5053012;28;20067;-69
2023/09/28 00:20:18;;;;;;;14.45;7.65;;;18.40;99.90;;;;;;5025041;28;20517;-71
2023/09/28 00:22:46;;;;;;;13.93;7.75;;;18.40;99.90;;;;;;5032919;28;20075;-68
2023/09/28 00:25:13;;;;;;;10.77;7.43;;;18.40;99.90;;;;;;5049389;28;20139;-72
2023/09/28 00:27:43;;;;;;;13.10;7.00;;;18.40;99.90;;;;;;5060578;28;20076;-72
2023/09/28 00:30:14;;;;;;;13.20;7.43;;;18.50;99.90;;;;;;5015602;28;252904;-71
2023/09/28 00:32:43;;;;;;;13.13;7.28;;;18.50;99.90;;;;;;5052551;28;20064;-71
2023/09/28 00:35:10;;;;;;;12.15;7.20;;;18.50;99.90;;;;;;5007088;28;224793;-72
2023/09/28 00:37:36;;;;;;;15.82;7.43;;;18.50;99.90;;;;;;5059869;28;20044;-71
2023/09/28 00:40:16;;;;;;;12.32;7.28;;;18.50;99.90;;;;;;5017737;28;20063;-70
2023/09/28 00:42:49;;;;;;;12.68;7.50;;;18.50;99.90;;;;;;5046205;28;20061;-70
2023/09/28 00:45:16;;;;;;;16.52;7.40;;;18.50;99.90;;;;;;5020682;28;20045;-71
2023/09/28 00:47:42;;;;;;;12.00;7.13;;;18.50;99.90;;;;;;5044153;28;20071;-70
2023/09/28 00:50:17;;;;;;;12.50;7.20;;;18.50;99.90;;;;;;5024907;28;20597;-71
2023/09/28 00:52:58;;;;;;;13.27;7.20;;;18.50;99.90;;;;;;5039844;28;20068;-70
2023/09/28 00:55:25;;;;;;;11.02;6.82;;;18.50;99.90;;;;;;5006674;28;20039;-71
2023/09/28 00:57:52;;;;;;;12.13;6.82;;;18.50;99.90;;;;;;5019601;28;20044;-71
2023/09/28 01:00:18;;;;;;;11.02;6.20;;;18.50;99.90;;;;;;5041685;28;20505;-72
2023/09/28 01:02:51;;;;;;;13.02;6.32;;;18.60;99.90;;;;;;5031521;28;20474;-70
2023/09/28 01:05:34;;;;;;;11.90;6.32;;;18.60;99.90;;;;;;5034877;28;20036;-70
2023/09/28 01:08:14;;;;;;;10.95;6.10;;;18.60;99.90;;;;;;5020927;28;20048;-71
2023/09/28 01:10:41;;;;;;;15.38;6.72;;;18.70;99.90;;;;;;5060018;28;20352;-70
2023/09/28 01:13:12;;;;;;;12.70;5.70;;;18.70;99.90;;;;;;5025857;28;20060;-72
2023/09/28 01:15:49;;;;;;;13.07;5.40;;;18.70;99.90;;;;;;5063240;28;20048;-71
2023/09/28 01:18:17;;;;;;;9.70;5.60;;;18.70;99.90;;;;;;5023476;28;20056;-70
2023/09/28 01:20:45;;;;;;;12.02;5.63;;;18.70;99.90;;;;;;5051017;28;20693;-71
2023/09/28 01:23:11;;;;;;;11.55;5.82;;;18.70;99.90;;;;;;5020401;28;20044;-71
2023/09/28 01:25:38;;;;;;;10.80;5.50;;;18.70;99.90;;;;;;5054089;28;20048;-72
2023/09/28 01:28:05;;;;;;;11.05;5.88;;;18.70;99.90;;;;;;5019903;28;20056;-71
2023/09/28 01:30:32;;;;;;;13.95;5.70;;;18.70;99.90;;;;;;5044305;28;20052;-72
2023/09/28 01:32:58;;;;;;;11.50;5.60;;;18.70;99.90;;;;;;5020443;28;20063;-70
2023/09/28 01:35:25;;;;;;;11.27;5.40;;;18.70;99.90;;;;;;5057658;28;20048;-70
2023/09/28 01:38:09;;;;;;;12.82;5.70;;;18.70;99.90;;;;;;5020670;28;20060;-71
2023/09/28 01:40:35;;;;;;;10.82;5.30;;;18.70;99.90;;;;;;5053774;28;20033;-72
2023/09/28 01:43:01;;;;;;;13.65;5.10;;;18.60;99.90;;;;;;5016654;28;20036;-71
2023/09/28 01:45:28;;;;;;;10.02;5.57;;;18.60;99.90;;;;;;5042243;28;20059;-71
2023/09/28 01:47:54;;;;;;;11.27;5.18;;;18.60;99.90;;;;;;5019203;28;20041;-71
2023/09/28 01:50:20;;;;;;;10.77;5.60;;;18.60;99.90;;;;;;5038986;28;20422;-71
2023/09/28 01:52:47;;;;;;;12.10;5.47;;;18.60;99.90;;;;;;5020584;28;20049;-70
2023/09/28 01:55:13;;;;;;;9.02;4.82;;;18.50;99.90;;;;;;4998631;28;112616;-72
2023/09/28 01:57:40;;;;;;;9.60;4.97;;;18.50;99.90;;;;;;5053617;28;20052;-72
2023/09/28 02:00:20;;;;;;;11.55;5.03;;;18.40;99.90;;;;;;5028355;28;20522;-71
2023/09/28 02:02:47;;;;;;;11.53;5.40;;;18.40;99.90;;;;;;5024400;28;20186;-70
2023/09/28 02:05:18;;;;;;;9.35;4.85;;;18.30;99.90;;;;;;5046565;28;20048;-72
2023/09/28 02:07:45;;;;;;;10.63;5.30;;;18.30;99.90;;;;;;5037770;28;20048;-71
2023/09/28 02:10:12;;;;;;;12.82;5.07;;;18.30;99.90;;;;;;5034834;28;20393;-72
2023/09/28 02:12:46;;;;;;;10.30;5.05;;;18.30;99.90;;;;;;5062902;28;20059;-72
2023/09/28 02:15:16;;;;;;;11.43;5.20;;;18.20;99.90;;;;;;4985539;28;20047;-72
2023/09/28 02:17:46;;;;;;;11.65;5.10;;;18.20;99.90;;;;;;5049788;28;20474;-70
2023/09/28 02:20:20;;;;;;;14.80;5.53;;;18.20;99.90;;;;;;4999456;28;20518;-71
2023/09/28 02:22:46;;;;;;;11.13;5.68;;;18.10;99.90;;;;;;5024628;28;20057;-71
2023/09/28 02:25:15;;;;;;;11.73;5.30;;;18.10;99.90;;;;;;5038409;28;20056;-70
2023/09/28 02:27:42;;;;;;;10.32;5.60;;;18.10;99.90;;;;;;5049696;28;20057;-71
2023/09/28 02:30:14;;;;;;;10.88;5.60;;;18.10;99.90;;;;;;5022722;28;20053;-72
2023/09/28 02:32:43;;;;;;;10.95;5.35;;;18.00;99.90;;;;;;5054632;28;20082;-70
2023/09/28 02:35:11;;;;;;;13.10;5.50;;;18.00;99.90;;;;;;5039658;28;24484;-72
2023/09/28 02:37:37;;;;;;;10.85;5.28;;;17.90;99.90;;;;;;5064253;28;20057;-71
2023/09/28 02:40:07;;;;;;;12.13;5.47;;;17.90;99.90;;;;;;4998304;28;20053;-72
2023/09/28 02:42:36;;;;;;;12.30;5.80;;;17.90;99.90;;;;;;5059300;28;20073;-70
2023/09/28 02:45:10;;;;;;;10.48;5.60;;;17.80;99.90;;;;;;5001037;28;20048;-71
2023/09/28 02:47:41;;;;;;;11.65;6.03;;;17.70;99.90;;;;;;5057042;28;20053;-71
2023/09/28 02:50:11;;;;;;;15.25;5.90;;;17.70;99.90;;;;;;4991625;28;123083;-71
2023/09/28 02:52:42;;;;;;;12.45;6.40;;;17.60;99.90;;;;;;5058129;28;20053;-71
2023/09/28 02:55:10;;;;;;;11.10;5.55;;;17.60;99.90;;;;;;4988990;28;20053;-71
2023/09/28 02:57:37;;;;;;;16.83;6.13;;;17.50;99.90;;;;;;5060321;28;20537;-71
2023/09/28 03:00:24;;;;;;;16.02;5.78;;;17.50;99.90;;;;;;5007432;28;20418;-71
2023/09/28 03:02:51;;;;;;;12.75;6.53;;;17.50;99.90;;;;;;5022966;28;20056;-70
2023/09/28 03:05:20;;;;;;;12.30;5.70;;;17.40;99.90;;;;;;5036679;28;20053;-72
2023/09/28 03:07:47;;;;;;;12.20;5.90;;;17.40;99.90;;;;;;5023493;28;20075;-70
2023/09/28 03:10:14;;;;;;;13.23;6.50;;;17.30;99.90;;;;;;5050873;28;20059;-71
2023/09/28 03:12:42;;;;;;;10.60;5.85;;;17.30;99.90;;;;;;5054245;28;20056;-70
2023/09/28 03:15:11;;;;;;;13.40;6.40;;;17.20;99.90;;;;;;5010729;28;20052;-70
2023/09/28 03:17:39;;;;;;;13.18;6.13;;;17.30;99.90;;;;;;5050587;28;20059;-72
2023/09/28 03:20:14;;;;;;;12.27;6.32;;;17.20;99.90;;;;;;5012633;28;20072;-71
2023/09/28 03:22:45;;;;;;;12.60;6.20;;;17.20;99.90;;;;;;5051960;28;20052;-72
2023/09/28 03:25:17;;;;;;;11.77;6.55;;;17.10;99.90;;;;;;4996122;28;20040;-71
2023/09/28 03:27:45;;;;;;;13.25;6.93;;;17.10;99.90;;;;;;5039436;28;20056;-70
2023/09/28 03:30:13;;;;;;;15.23;7.22;;;17.10;99.90;;;;;;5046410;28;20071;-71
2023/09/28 03:32:40;;;;;;;13.98;6.70;;;17.00;99.90;;;;;;5051864;28;20052;-70
2023/09/28 03:35:10;;;;;;;13.45;6.82;;;17.00;99.90;;;;;;5026614;28;20067;-71
2023/09/28 03:37:37;;;;;;;12.43;7.22;;;17.00;99.90;;;;;;5057408;28;20052;-71
2023/09/28 03:40:10;;;;;;;12.40;7.10;;;16.90;99.90;;;;;;5014918;28;20053;-71
2023/09/28 03:42:43;;;;;;;13.70;7.50;;;16.90;99.90;;;;;;5051988;28;20048;-71
2023/09/28 03:45:11;;;;;;;13.68;7.53;;;16.90;99.90;;;;;;4972765;28;20408;-71
2023/09/28 03:47:39;;;;;;;14.57;7.20;;;16.90;99.90;;;;;;5054523;28;20052;-71
2023/09/28 03:50:07;;;;;;;13.57;7.60;;;16.90;99.90;;;;;;5002934;28;20048;-71
2023/09/28 03:52:37;;;;;;;13.82;8.35;;;16.80;99.90;;;;;;5058977;28;20055;-71
2023/09/28 03:55:12;;;;;;;13.27;7.50;;;16.80;99.90;;;;;;4996595;28;135893;-70
2023/09/28 03:57:38;;;;;;;13.73;7.97;;;16.80;99.90;;;;;;5058747;28;20063;-71
2023/09/28 04:00:12;;;;;;;12.57;7.72;;;16.80;99.90;;;;;;4997643;28;20425;-69
2023/09/28 04:02:42;;;;;;;13.65;7.97;;;16.70;99.90;;;;;;5059513;28;20044;-70
2023/09/28 04:05:09;;;;;;;15.13;7.93;;;16.60;99.90;;;;;;5000388;28;20045;-70
2023/09/28 04:07:35;;;;;;;14.90;8.10;;;16.60;99.90;;;;;;5056239;28;20052;-70
2023/09/28 04:10:03;;;;;;;16.92;8.55;;;16.60;99.90;;;;;;5003661;28;20046;-71
2023/09/28 04:12:29;;;;;;;16.17;8.40;;;16.60;99.90;;;;;;5060767;28;20048;-70
2023/09/28 04:14:56;;;;;;;16.42;8.43;;;16.60;99.90;;;;;;5001433;28;20053;-71
2023/09/28 04:17:22;;;;;;;16.75;9.20;;;16.50;99.90;;;;;;5059153;28;20049;-71
2023/09/28 04:19:48;;;;;;;13.10;8.32;;;16.50;99.90;;;;;;5004023;28;20104;-70
2023/09/28 04:22:15;;;;;;;15.48;8.48;;;16.50;99.90;;;;;;5059390;28;20135;-70
2023/09/28 04:24:42;;;;;;;15.27;8.55;;;16.40;99.90;;;;;;5021332;28;20063;-70
2023/09/28 04:27:08;;;;;;;16.27;9.13;;;16.40;99.90;;;;;;5068111;28;20055;-71
2023/09/28 04:29:38;;;;;;;18.35;9.40;;;16.40;99.90;;;;;;5020629;28;20045;-70
2023/09/28 04:32:04;;;;;;;13.52;8.35;;;16.30;99.90;;;;;;5064103;28;20052;-70
2023/09/28 04:34:30;;;;;;;14.13;8.27;;;16.30;99.90;;;;;;5013642;28;214389;-71
2023/09/28 04:36:57;;;;;;;14.90;8.90;;;16.30;99.90;;;;;;5063887;28;20072;-70
2023/09/28 04:39:24;;;;;;;16.77;8.43;;;16.30;99.90;;;;;;5025205;28;20056;-71
2023/09/28 04:41:54;;;;;;;18.98;8.82;;;16.40;99.90;;;;;;5057746;28;20061;-70
2023/09/28 04:44:21;;;;;;;13.93;8.48;;;16.30;99.90;;;;;;4999384;28;20492;-71
2023/09/28 04:46:50;;;;;;;13.98;8.40;;;16.30;99.90;;;;;;5052125;28;20049;-71
2023/09/28 04:49:17;;;;;;;13.80;8.35;;;16.30;99.90;;;;;;5005034;28;20048;-71
2023/09/28 04:51:43;;;;;;;13.57;8.27;;;16.30;99.90;;;;;;5058446;28;20044;-70
2023/09/28 04:54:09;;;;;;;14.10;8.65;;;16.30;99.90;;;;;;5001578;28;170952;-71
2023/09/28 04:56:35;;;;;;;14.75;8.60;;;16.30;99.90;;;;;;5055199;28;20056;-71
2023/09/28 04:59:02;;;;;;;16.27;8.50;;;16.30;99.90;;;;;;5008108;28;20128;-71
2023/09/28 05:01:29;;;;;;;14.32;8.45;;;16.20;99.90;;;;;;5050057;28;20061;-69
2023/09/28 05:03:55;;;;;;;12.77;8.13;;;16.20;99.90;;;;;;5019869;28;20044;-72
2023/09/28 05:06:21;;;;;;;12.82;8.55;;;16.20;99.90;;;;;;5053418;28;20414;-70
2023/09/28 05:08:47;;;;;;;14.05;8.32;;;16.20;99.90;;;;;;5012717;28;20054;-71
2023/09/28 05:11:13;;;;;;;15.15;8.70;;;16.20;99.90;;;;;;5048985;28;20044;-71
2023/09/28 05:13:39;;;;;;;15.85;8.43;;;16.10;99.90;;;;;;5013856;28;20052;-71
2023/09/28 05:16:05;;;;;;;17.02;7.88;;;16.20;99.90;;;;;;5050749;28;20394;-71
2023/09/28 05:18:31;;;;;;;13.70;8.10;;;16.10;99.90;;;;;;5013581;28;20583;-71
2023/09/28 05:20:58;;;;;;;18.20;7.90;;;16.20;99.90;;;;;;5052594;28;20052;-70
2023/09/28 05:23:25;;;;;;;15.15;8.27;;;16.20;99.90;;;;;;5021195;28;20561;-71
2023/09/28 05:25:51;;;;;;;19.05;8.23;;;16.20;99.90;;;;;;5058125;28;20049;-70
2023/09/28 05:28:17;;;;;;;13.00;7.60;;;16.10;99.90;;;;;;5014572;28;20041;-70
2023/09/28 05:30:43;;;;;;;16.88;8.65;;;16.10;99.90;;;;;;5045554;28;20064;-71
2023/09/28 05:33:09;;;;;;;15.05;8.38;;;16.10;99.90;;;;;;5025374;28;20051;-71
2023/09/28 05:35:35;;;;;;;15.55;8.27;;;16.10;99.90;;;;;;5066614;28;20396;-70
2023/09/28 05:38:02;;;;;;;17.15;8.82;;;16.10;99.90;;;;;;5023925;28;20045;-71
2023/09/28 05:40:28;;;;;;;14.27;7.90;;;16.00;99.90;;;;;;5032170;28;20499;-70
2023/09/28 05:42:54;;;;;;;18.77;7.68;;;16.10;99.90;;;;;;5022265;28;20048;-70
2023/09/28 05:45:20;;;;;;;16.15;6.90;;;16.10;99.90;;;;;;5044606;28;20045;-71
2023/09/28 05:47:47;;;;;;;17.55;7.47;;;16.10;99.90;;;;;;5022812;28;20045;-70
2023/09/28 05:50:13;;;;;;;16.77;7.07;;;16.10;99.90;;;;;;5036871;28;20538;-72
2023/09/28 05:52:40;;;;;;;13.80;7.15;;;16.10;99.90;;;;;;5061020;28;20514;-72
2023/09/28 05:55:06;;;;;;;14.20;6.75;;;16.10;99.90;;;;;;5011779;28;73679;-74
2023/09/28 05:57:32;;;;;;;19.42;7.35;;;16.10;99.90;;;;;;5058903;28;20554;-72
2023/09/28 05:59:59;;;;;;;16.38;6.82;;;16.10;99.90;;;;;;4962608;28;20056;-72
2023/09/28 06:02:25;;;;;;;14.80;6.40;;;16.10;99.90;;;;;;5061328;28;20053;-72
2023/09/28 06:04:51;;;;;;;17.65;6.95;;;16.10;99.90;;;;;;5014926;28;39028;-71
2023/09/28 06:07:17;;;;;;;17.63;6.75;;;16.10;99.90;;;;;;5059274;28;20045;-72
2023/09/28 06:09:43;;;;;;;14.85;6.90;;;16.10;99.90;;;;;;4984630;28;20431;-72
2023/09/28 06:12:10;;;;;;;14.60;6.43;;;16.10;99.90;;;;;;5060887;28;20048;-71
2023/09/28 06:14:36;;;;;;;13.57;6.65;;;16.10;99.90;;;;;;5001028;28;20048;-71
2023/09/28 06:17:02;;;;;;;19.90;7.25;;;16.10;99.90;;;;;;5056124;28;20056;-73
2023/09/28 06:19:29;;;;;;;18.10;6.95;;;16.10;99.90;;;;;;5004577;28;20040;-71
2023/09/28 06:21:55;;;;;;;15.13;6.32;;;16.20;99.90;;;;;;5058839;28;20060;-71
2023/09/28 06:24:21;;;;;;;18.45;6.93;;;16.20;99.90;;;;;;5014225;28;20697;-72
2023/09/28 06:26:49;;;;;;;15.23;6.60;;;16.30;99.90;;;;;;5055907;28;20049;-71
2023/09/28 06:29:15;;;;;;;17.05;6.90;;;16.30;99.90;;;;;;5018174;28;20045;-72
2023/09/28 06:31:41;;;;;;;19.08;6.65;;;16.40;99.90;;;;;;5052165;28;20055;-71
2023/09/28 06:34:08;;;;;;;15.38;6.53;;;16.40;99.90;;;;;;5007027;28;20064;-72
2023/09/28 06:36:34;;;;;;;15.68;6.55;;;16.60;99.90;;;;;;5047456;28;20122;-72
2023/09/28 06:39:00;;;;;;;17.27;6.20;;;16.60;99.90;;;;;;5007104;28;20045;-71
2023/09/28 06:41:27;;;;;;;25.00;6.03;;;16.70;99.90;;;;;;5050627;28;20462;-71
2023/09/28 06:43:53;;;;;;;19.35;5.75;;;16.70;99.90;;;;;;5019670;28;20040;-71
2023/09/28 06:46:21;;;;;;;17.55;5.72;;;16.70;99.90;;;;;;5059849;28;20451;-71
2023/09/28 06:48:49;;;;;;;15.65;5.22;;;16.70;99.90;;;;;;5011070;28;20522;-72
2023/09/28 06:51:16;;;;;;;19.65;6.03;;;16.80;99.90;;;;;;5060333;28;20053;-71
2023/09/28 06:53:42;;;;;;;19.63;5.10;;;16.90;99.90;;;;;;5012652;28;151909;-71
2023/09/28 06:56:08;;;;;;;16.02;4.93;;;16.90;99.90;;;;;;5065929;28;20056;-71
2023/09/28 06:58:34;;;;;;;18.50;4.90;;;17.00;99.90;;;;;;5027431;28;20052;-71
2023/09/28 07:01:00;;;;;;;19.13;5.05;;;17.00;99.90;;;;;;5067542;28;20495;-71
2023/09/28 07:03:26;;;;;;;21.65;4.88;;;17.00;99.90;;;;;;5016825;28;20057;-71
2023/09/28 07:05:53;;;;;;;20.80;4.18;;;17.10;99.90;;;;;;5044380;28;20079;-71
2023/09/28 07:08:19;;;;;;;21.00;4.22;;;17.10;99.90;;;;;;5010741;28;20120;-71
2023/09/28 07:10:45;;;;;;;26.88;5.07;;;17.20;99.90;;;;;;5038390;28;20071;-71
2023/09/28 07:13:11;;;;;;;24.85;4.57;;;17.20;99.90;;;;;;5014981;28;20128;-71
2023/09/28 07:15:37;;;;;;;27.02;4.90;;;17.20;99.90;;;;;;5045226;28;20079;-71
2023/09/28 07:18:04;;;;;;;29.45;5.32;;;17.20;99.90;;;;;;5003409;28;20047;-71
2023/09/28 07:20:30;;;;;;;24.25;4.75;;;17.30;99.90;;;;;;5059645;28;20548;-71
2023/09/28 07:22:56;;;;;;;29.38;5.38;;;17.30;99.90;;;;;;5014786;28;20590;-72
2023/09/28 07:25:25;;;;;;;22.92;4.10;;;17.30;99.90;;;;;;5057163;28;20041;-71
2023/09/28 07:27:52;;;;;;;22.17;4.53;;;17.30;99.90;;;;;;5001996;28;20048;-70
2023/09/28 07:30:19;;;;;;;28.23;4.72;;;17.30;99.90;;;;;;5028820;28;20049;-70
2023/09/28 07:32:46;;;;;;;27.98;4.97;;;17.30;99.90;;;;;;5028483;28;20060;-71
2023/09/28 07:35:13;;;;;;;27.05;5.03;;;17.40;99.90;;;;;;5018034;28;20743;-71
2023/09/28 07:37:42;;;;;;;26.27;4.63;;;17.40;99.90;;;;;;5051985;28;20093;-71
2023/09/28 07:40:12;;;;;;;30.60;5.45;;;17.40;99.90;;;;;;4992477;28;20494;-71
2023/09/28 07:42:40;;;;;;;29.35;4.82;;;17.50;99.90;;;;;;5056627;28;20056;-71
2023/09/28 07:45:07;;;;;;;28.13;4.53;;;17.50;99.90;;;;;;4992529;28;20044;-71
2023/09/28 07:47:33;;;;;;;19.65;3.88;;;17.60;99.90;;;;;;5056748;28;20056;-71
2023/09/28 07:50:00;;;;;;;31.60;4.75;;;17.60;99.90;;;;;;4983378;28;20680;-72
2023/09/28 07:52:26;;;;;;;24.73;4.22;;;17.60;99.90;;;;;;5055990;28;20049;-71
2023/09/28 07:54:52;;;;;;;25.83;4.82;;;17.70;99.90;;;;;;5019659;28;70924;-71
2023/09/28 07:57:18;;;;;;;26.75;4.43;;;17.80;99.90;;;;;;5059164;28;20045;-71
2023/09/28 07:59:44;;;;;;;29.70;5.00;;;17.90;99.90;;;;;;5011158;28;20052;-72
2023/09/28 08:02:11;;;;;;;29.38;5.00;;;18.00;99.90;;;;;;5061172;28;20486;-72
2023/09/28 08:04:38;;;;;;;26.65;4.82;;;18.10;99.90;;;;;;5024401;28;20544;-72
2023/09/28 08:07:04;;;;;;;29.95;4.75;;;18.20;99.90;;;;;;5057949;28;20045;-72
2023/09/28 08:09:32;;;;;;;27.25;4.95;;;18.40;99.90;;;;;;5007660;28;20518;-72
2023/09/28 08:11:59;;;;;;;21.77;4.55;;;18.40;99.90;;;;;;5059399;28;20044;-71
2023/09/28 08:14:25;;;;;;;29.40;5.00;;;18.50;99.90;;;;;;5007350;28;20051;-72
2023/09/28 08:16:54;;;;;;;27.75;5.22;;;18.50;99.90;;;;;;5057588;28;20055;-73
2023/09/28 08:19:20;;;;;;;28.92;4.85;;;18.60;99.90;;;;;;5010453;28;20052;-71
2023/09/28 08:21:46;;;;;;;27.83;4.68;;;18.60;99.90;;;;;;5055762;28;20499;-71
2023/09/28 08:24:12;;;;;;;28.50;5.35;;;18.70;99.90;;;;;;5011087;28;20041;-71
2023/09/28 08:26:38;;;;;;;29.58;4.82;;;18.70;99.90;;;;;;5057602;28;20522;-71
2023/09/28 08:29:05;;;;;;;34.00;5.50;;;18.70;99.90;;;;;;5014030;28;20038;-71
2023/09/28 08:31:32;;;;;;;30.35;5.30;;;18.80;99.90;;;;;;5058429;28;20055;-71
2023/09/28 08:33:59;;;;;;;28.55;4.88;;;18.80;99.90;;;;;;5004648;28;20541;-71
2023/09/28 08:36:26;;;;;;;25.25;4.45;;;18.90;99.90;;;;;;5056461;28;20052;-72
2023/09/28 08:38:54;;;;;;;24.45;4.40;;;19.00;99.90;;;;;;5024869;28;20049;-70
2023/09/28 08:41:41;;;;;;;30.17;5.55;;;19.30;99.90;;;;;;5050857;28;20057;-71
2023/09/28 08:44:07;;;;;;;23.13;4.45;;;19.70;99.90;;;;;;5010489;28;20547;-72
2023/09/28 08:46:38;;;;;;;28.92;4.80;;;19.90;99.90;;;;;;5054344;28;20044;-72
2023/09/28 08:49:06;;;;;;;31.75;4.88;;;19.80;99.90;;;;;;5005878;28;20076;-71
2023/09/28 08:51:34;;;;;;;28.40;5.30;;;19.70;99.90;;;;;;5052803;28;20052;-71
2023/09/28 08:54:05;;;;;;;29.73;5.03;;;20.60;99.90;;;;;;5012275;28;20572;-72
2023/09/28 08:56:37;;;;;;;26.63;4.47;;;21.00;99.90;;;;;;5054153;28;20047;-72
2023/09/28 08:59:04;;;;;;;25.65;4.57;;;20.80;99.90;;;;;;5021098;28;20099;-71
2023/09/28 09:01:32;;;;;;;23.92;4.35;;;20.40;99.90;;;;;;5063334;28;20057;-72
2023/09/28 09:03:59;;;;;;;33.28;5.00;;;20.40;99.90;;;;;;5012830;28;20050;-71
2023/09/28 09:06:31;;;;;;;28.90;5.22;;;20.00;99.90;;;;;;5053529;28;20053;-72
2023/09/28 09:09:03;;;;;;;27.08;5.18;;;19.80;99.90;;;;;;5007409;28;20056;-72
2023/09/28 09:11:31;;;;;;;25.27;4.78;;;19.80;99.90;;;;;;5057224;28;20641;-72
2023/09/28 09:13:57;;;;;;;25.98;4.60;;;19.60;99.90;;;;;;5009365;28;20053;-71
2023/09/28 09:16:26;;;;;;;23.98;4.30;;;19.70;99.90;;;;;;5045395;28;20511;-72
2023/09/28 09:18:55;;;;;;;28.75;5.13;;;20.10;99.90;;;;;;5015403;28;20060;-72
2023/09/28 09:21:22;;;;;;;20.80;4.07;;;21.00;99.90;;;;;;5059365;28;20049;-72
2023/09/28 09:24:02;;;;;;;22.17;4.03;;;21.60;99.90;;;;;;5002637;28;250487;-72
2023/09/28 09:26:39;;;;;;;24.67;4.93;;;21.10;99.90;;;;;;5055416;28;20052;-72
2023/09/28 09:29:07;;;;;;;23.92;4.05;;;20.60;99.90;;;;;;5023158;28;199471;-72
2023/09/28 09:31:36;;;;;;;24.20;4.22;;;20.30;99.90;;;;;;5065466;28;20060;-72
2023/09/28 09:34:06;;;;;;;24.77;4.63;;;20.10;99.90;;;;;;5015933;28;20049;-72
2023/09/28 09:36:32;;;;;;;29.10;4.87;;;20.10;99.90;;;;;;5054301;28;20056;-71
2023/09/28 09:38:58;;;;;;;22.35;3.90;;;19.90;99.90;;;;;;5012168;28;120265;-72
2023/09/28 09:41:25;;;;;;;27.95;4.68;;;19.80;99.90;;;;;;5062485;28;20434;-72
2023/09/28 09:43:51;;;;;;;25.52;4.47;;;19.70;99.90;;;;;;5008373;28;219298;-71
2023/09/28 09:46:18;;;;;;;21.67;4.00;;;19.60;99.90;;;;;;5049361;28;20060;-72
2023/09/28 09:48:44;;;;;;;25.42;4.55;;;19.60;99.90;;;;;;5025250;28;76397;-71
2023/09/28 09:51:15;;;;;;;22.50;4.53;;;19.60;99.90;;;;;;5053851;28;20427;-72
2023/09/28 09:53:43;;;;;;;23.58;4.53;;;19.50;99.90;;;;;;5004521;28;234843;-72
2023/09/28 09:56:11;;;;;;;26.10;4.93;;;19.60;99.90;;;;;;5063370;28;20044;-72
2023/09/28 09:58:48;;;;;;;25.38;4.55;;;19.50;99.90;;;;;;5010401;28;180968;-72
2023/09/28 10:01:19;;;;;;;23.58;4.65;;;19.50;99.90;;;;;;5063277;28;20063;-72
2023/09/28 10:03:50;;;;;;;26.00;5.07;;;19.60;99.90;;;;;;5015135;28;25972;-72
2023/09/28 10:06:19;;;;;;;32.78;4.43;;;19.70;99.90;;;;;;5051738;28;20048;-72
2023/09/28 10:08:46;;;;;;;22.75;4.68;;;19.80;99.90;;;;;;5004761;28;216094;-71
2023/09/28 10:11:13;;;;;;;23.45;4.57;;;19.80;99.90;;;;;;5060911;28;20048;-72
2023/09/28 10:13:40;;;;;;;27.08;4.72;;;19.70;99.90;;;;;;5012051;28;94110;-72
2023/09/28 10:16:08;;;;;;;22.98;4.00;;;19.60;99.90;;;;;;5063946;28;20056;-72
2023/09/28 10:18:36;;;;;;;24.52;4.15;;;19.70;99.90;;;;;;5010004;28;253174;-72
2023/09/28 10:21:03;;;;;;;23.15;4.50;;;19.50;99.90;;;;;;5044165;28;20054;-72
2023/09/28 10:23:30;;;;;;;26.40;4.50;;;19.40;99.90;;;;;;5012143;28;166076;-72
2023/09/28 10:25:58;;;;;;;21.10;4.32;;;19.40;99.90;;;;;;5061812;28;20048;-73
2023/09/28 10:28:24;;;;;;;29.05;4.75;;;19.40;99.90;;;;;;5003570;28;178022;-73
2023/09/28 10:31:10;;;;;;;19.98;4.50;;;19.40;99.90;;;;;;5053551;28;20037;-72
2023/09/28 10:33:59;;;;;;;27.60;3.92;;;19.40;99.90;;;;;;5009060;28;180998;-72
2023/09/28 10:36:28;;;;;;;26.30;4.45;;;19.20;99.90;;;;;;5054959;28;20048;-74
2023/09/28 10:39:17;;;;;;;22.25;4.30;;;19.30;99.90;;;;;;5010097;28;73983;-72
2023/09/28 10:41:51;;;;;;;23.17;4.28;;;19.40;99.90;;;;;;5053429;28;20079;-72
2023/09/28 10:44:21;;;;;;;25.52;3.92;;;19.40;99.90;;;;;;5006476;28;141013;-72
2023/09/28 10:46:50;;;;;;;22.00;4.27;;;19.50;99.90;;;;;;5053319;28;20060;-72
2023/09/28 10:49:27;;;;;;;26.58;4.53;;;19.50;99.90;;;;;;5012020;28;218857;-73
2023/09/28 10:51:57;;;;;;;23.20;4.68;;;19.50;99.90;;;;;;5059562;28;20418;-71
2023/09/28 10:54:27;;;;;;;22.10;4.72;;;19.50;99.90;;;;;;5004643;28;111140;-72
2023/09/28 10:56:53;;;;;;;21.60;4.65;;;19.50;99.90;;;;;;5049562;28;20079;-72
2023/09/28 10:59:20;;;;;;;28.08;4.57;;;19.50;99.90;;;;;;5008639;28;222323;-72
2023/09/28 11:01:47;;;;;;;27.00;5.18;;;19.50;99.90;;;;;;5054867;28;20053;-71
2023/09/28 11:04:15;;;;;;;22.77;4.25;;;19.60;99.90;;;;;;5010131;28;119449;-72
2023/09/28 11:06:45;;;;;;;24.65;3.95;;;19.70;99.90;;;;;;5053068;28;20055;-71
2023/09/28 11:09:13;;;;;;;25.88;4.50;;;19.80;99.90;;;;;;5009669;28;86332;-72
2023/09/28 11:11:43;;;;;;;19.80;4.00;;;19.90;99.90;;;;;;5057319;28;20090;-72
2023/09/28 11:14:12;;;;;;;27.92;5.03;;;19.90;99.90;;;;;;5011398;28;194460;-72
2023/09/28 11:16:40;;;;;;;22.17;4.40;;;19.90;99.90;;;;;;5052928;28;20048;-72
2023/09/28 11:19:08;;;;;;;21.27;3.90;;;19.80;99.90;;;;;;5003713;28;193589;-72
2023/09/28 11:21:34;;;;;;;24.42;4.25;;;19.80;99.90;;;;;;5057628;28;20052;-72
2023/09/28 11:24:04;;;;;;;25.77;4.65;;;19.80;99.90;;;;;;5011939;28;176245;-73
2023/09/28 11:26:31;;;;;;;19.33;3.90;;;19.70;99.90;;;;;;5058454;28;20056;-72
2023/09/28 11:28:58;;;;;;;24.20;4.50;;;19.70;99.90;;;;;;5013281;28;158810;-72
2023/09/28 11:31:30;;;;;;;25.33;4.40;;;19.70;99.90;;;;;;5063503;28;20044;-72
2023/09/28 11:33:59;;;;;;;28.45;5.15;;;19.70;99.90;;;;;;5013538;28;122751;-72
2023/09/28 11:36:27;;;;;;;23.83;4.15;;;19.70;99.90;;;;;;5061632;28;20060;-72
2023/09/28 11:38:55;;;;;;;26.88;4.60;;;19.90;99.90;;;;;;5014471;28;20417;-73
2023/09/28 11:41:23;;;;;;;27.45;4.43;;;19.80;99.90;;;;;;5047572;28;20057;-72
2023/09/28 11:43:52;;;;;;;24.98;4.97;;;19.90;99.90;;;;;;5012411;28;230885;-72
2023/09/28 11:46:24;;;;;;;20.88;4.40;;;20.00;99.90;;;;;;5054444;28;20056;-71
2023/09/28 11:49:06;;;;;;;24.55;4.43;;;20.10;99.90;;;;;;5020989;28;134230;-73
2023/09/28 11:51:33;;;;;;;25.58;4.22;;;20.20;99.90;;;;;;5055590;28;20406;-73
2023/09/28 11:54:01;;;;;;;24.02;4.28;;;20.00;99.90;;;;;;4993120;28;153504;-73
2023/09/28 11:56:27;;;;;;;21.02;4.28;;;20.10;99.90;;;;;;5042502;28;20052;-71
2023/09/28 11:58:55;;;;;;;22.40;4.15;;;20.20;99.90;;;;;;5009525;28;239806;-72
2023/09/28 12:01:21;;;;;;;24.00;4.15;;;20.20;99.90;;;;;;5059529;28;20052;-71
2023/09/28 12:03:48;;;;;;;19.25;3.88;;;20.20;99.90;;;;;;5012247;28;100455;-72
2023/09/28 12:06:14;;;;;;;27.58;4.68;;;20.20;99.90;;;;;;5060342;28;20083;-71
2023/09/28 12:08:41;;;;;;;23.48;4.57;;;20.30;99.90;;;;;;5009784;28;83701;-71
2023/09/28 12:11:08;;;;;;;23.33;4.47;;;20.40;99.90;;;;;;5049029;28;20056;-71
2023/09/28 12:13:34;;;;;;;23.13;4.28;;;20.30;99.90;;;;;;5020725;28;162834;-73
2023/09/28 12:16:00;;;;;;;23.48;4.43;;;20.30;99.90;;;;;;5069277;28;20059;-73
2023/09/28 12:18:27;;;;;;;24.42;4.53;;;20.50;99.90;;;;;;5011964;28;199065;-72
2023/09/28 12:20:53;;;;;;;24.20;4.82;;;20.60;99.90;;;;;;5046717;28;20060;-72
2023/09/28 12:23:19;;;;;;;29.98;4.50;;;20.60;99.90;;;;;;5012276;28;173075;-73
2023/09/28 12:25:45;;;;;;;23.15;4.40;;;20.50;99.90;;;;;;5049239;28;20079;-73
2023/09/28 12:28:12;;;;;;;23.53;4.80;;;20.40;99.90;;;;;;5009260;28;280354;-73
2023/09/28 12:30:38;;;;;;;23.33;4.38;;;20.40;99.90;;;;;;5052834;28;20533;-72
2023/09/28 12:33:06;;;;;;;21.77;3.72;;;20.20;99.90;;;;;;5017193;28;92160;-72
2023/09/28 12:35:32;;;;;;;26.15;4.50;;;20.20;99.90;;;;;;5040742;28;20064;-72
2023/09/28 12:37:58;;;;;;;30.33;4.85;;;20.20;99.90;;;;;;5030205;28;20053;-73
2023/09/28 12:40:24;;;;;;;25.45;4.45;;;20.20;99.90;;;;;;5046270;28;175982;-72
2023/09/28 12:42:50;;;;;;;25.42;4.32;;;20.20;99.90;;;;;;5027495;28;20053;-72